createdAt,value
2019-03-17T00:00:11.818Z,2.27
2019-03-17T00:02:40.865Z,2.35
2019-03-17T00:05:10.091Z,2.42
2019-03-17T00:07:39.151Z,2.60
2019-03-17T00:10:08.426Z,2.40
2019-03-17T00:12:37.468Z,2.50
2019-03-17T00:15:06.944Z,2.10
2019-03-17T00:17:36.044Z,2.50
2019-03-17T00:20:07.285Z,2.70
2019-03-17T00:22:36.327Z,2.35
2019-03-17T00:25:09.441Z,2.30
2019-03-17T00:27:36.845Z,2.40
2019-03-17T00:30:11.306Z,2.17
2019-03-17T00:32:40.339Z,2.10
2019-03-17T00:35:09.435Z,2.67
2019-03-17T00:37:38.545Z,2.50
2019-03-17T00:40:09.802Z,2.42
2019-03-17T00:42:38.905Z,2.20
2019-03-17T00:45:12.068Z,2.35
2019-03-17T00:47:41.249Z,2.30
2019-03-17T00:50:11.403Z,2.47
2019-03-17T00:52:40.446Z,2.40
2019-03-17T00:55:09.451Z,2.30
2019-03-17T00:57:38.503Z,2.37
2019-03-17T01:00:14.694Z,2.80
2019-03-17T01:02:43.737Z,3.30
2019-03-17T01:05:12.764Z,3.00
2019-03-17T01:07:41.810Z,2.60
2019-03-17T01:10:30.183Z,2.58
2019-03-17T01:12:59.213Z,2.50
2019-03-17T01:15:28.258Z,2.52
2019-03-17T01:17:57.349Z,2.37
2019-03-17T01:20:26.429Z,2.15
2019-03-17T01:22:55.500Z,2.40
2019-03-17T01:25:24.526Z,2.42
2019-03-17T01:27:53.561Z,2.70
2019-03-17T01:30:22.570Z,2.50
2019-03-17T01:32:51.741Z,2.22
2019-03-17T01:35:20.764Z,2.50
2019-03-17T01:37:49.804Z,2.45
2019-03-17T01:40:18.834Z,2.90
2019-03-17T01:42:47.851Z,2.37
2019-03-17T01:45:16.905Z,2.87
2019-03-17T01:47:46.320Z,2.75
2019-03-17T01:50:15.408Z,2.60
2019-03-17T01:52:44.532Z,2.37
2019-03-17T01:55:13.556Z,2.75
2019-03-17T01:57:42.592Z,2.60
2019-03-17T02:00:13.442Z,2.70
2019-03-17T02:02:42.463Z,2.60
2019-03-17T02:05:21.351Z,2.40
2019-03-17T02:07:42.233Z,2.37
2019-03-17T02:10:11.358Z,2.10
2019-03-17T02:12:40.414Z,2.37
2019-03-17T02:15:09.231Z,2.43
2019-03-17T02:17:38.297Z,2.17
2019-03-17T02:20:09.577Z,2.10
2019-03-17T02:22:38.622Z,1.95
2019-03-17T02:25:07.827Z,2.42
2019-03-17T02:27:36.867Z,2.02
2019-03-17T02:30:09.010Z,1.82
2019-03-17T02:32:38.046Z,2.00
2019-03-17T02:35:07.167Z,1.95
2019-03-17T02:37:36.206Z,2.00
2019-03-17T02:40:06.493Z,1.80
2019-03-17T02:42:35.615Z,1.60
2019-03-17T02:45:06.129Z,1.87
2019-03-17T02:47:35.157Z,1.60
2019-03-17T02:50:05.446Z,1.62
2019-03-17T02:52:34.488Z,1.70
2019-03-17T02:55:04.565Z,1.67
2019-03-17T02:57:33.618Z,1.42
2019-03-17T03:00:02.098Z,1.13
2019-03-17T03:02:31.131Z,1.52
2019-03-17T03:05:00.456Z,1.60
2019-03-17T03:07:29.602Z,1.67
2019-03-17T03:09:58.680Z,1.50
2019-03-17T03:12:27.768Z,1.72
2019-03-17T03:14:56.806Z,1.62
2019-03-17T03:17:25.852Z,1.45
2019-03-17T03:19:54.988Z,1.12
2019-03-17T03:22:24.062Z,1.47
2019-03-17T03:24:53.096Z,1.37
2019-03-17T03:27:22.146Z,1.47
2019-03-17T03:29:51.178Z,1.50
2019-03-17T03:32:20.262Z,1.57
2019-03-17T03:34:49.382Z,1.45
2019-03-17T03:37:18.422Z,1.57
2019-03-17T03:39:47.490Z,1.70
2019-03-17T03:42:16.571Z,1.80
2019-03-17T03:44:45.618Z,1.70
2019-03-17T03:47:14.670Z,1.70
2019-03-17T03:49:43.704Z,1.87
2019-03-17T03:52:12.768Z,1.70
2019-03-17T03:54:41.870Z,1.90
2019-03-17T03:57:10.948Z,1.75
2019-03-17T03:59:40.040Z,1.72
2019-03-17T04:02:09.070Z,1.77
2019-03-17T04:04:38.117Z,1.50
2019-03-17T04:07:07.158Z,1.85
2019-03-17T04:09:36.205Z,1.50
2019-03-17T04:12:05.318Z,1.70
2019-03-17T04:14:34.359Z,1.52
2019-03-17T04:17:03.404Z,1.60
2019-03-17T04:19:32.455Z,1.75
2019-03-17T04:22:01.547Z,1.60
2019-03-17T04:24:30.994Z,1.65
2019-03-17T04:27:00.031Z,1.70
2019-03-17T04:29:29.071Z,1.50
2019-03-17T04:31:57.558Z,1.85
2019-03-17T04:34:26.574Z,1.70
2019-03-17T04:36:55.624Z,1.70
2019-03-17T04:39:24.105Z,1.57
2019-03-17T04:41:53.136Z,1.50
2019-03-17T04:44:22.202Z,1.50
2019-03-17T04:46:51.246Z,1.45
2019-03-17T04:49:20.282Z,1.72
2019-03-17T04:51:49.408Z,1.60
2019-03-17T04:54:18.422Z,1.50
2019-03-17T04:56:47.472Z,1.62
2019-03-17T04:59:16.510Z,1.52
2019-03-17T05:01:45.538Z,1.40
2019-03-17T05:04:14.576Z,1.50
2019-03-17T05:06:52.636Z,1.50
2019-03-17T05:09:14.384Z,1.22
2019-03-17T05:11:42.852Z,1.50
2019-03-17T05:14:11.914Z,1.50
2019-03-17T05:16:40.942Z,1.50
2019-03-17T05:19:09.974Z,1.67
2019-03-17T05:21:39.036Z,1.55
2019-03-17T05:24:08.123Z,1.45
2019-03-17T05:26:37.172Z,1.37
2019-03-17T05:29:06.350Z,1.60
2019-03-17T05:31:35.511Z,1.75
2019-03-17T05:34:04.595Z,1.90
2019-03-17T05:36:33.639Z,1.40
2019-03-17T05:39:02.691Z,1.30
2019-03-17T05:41:31.730Z,1.55
2019-03-17T05:44:00.778Z,1.40
2019-03-17T05:46:29.817Z,1.30
2019-03-17T05:48:58.858Z,1.40
2019-03-17T05:51:27.950Z,1.50
2019-03-17T05:53:57.019Z,1.60
2019-03-17T05:56:26.045Z,1.98
2019-03-17T05:58:55.108Z,1.70
2019-03-17T06:01:24.211Z,1.70
2019-03-17T06:03:53.259Z,2.00
2019-03-17T06:06:22.306Z,1.70
2019-03-17T06:08:51.349Z,1.62
2019-03-17T06:11:20.383Z,1.72
2019-03-17T06:13:51.249Z,1.45
2019-03-17T06:16:20.185Z,1.30
2019-03-17T06:18:49.259Z,1.70
2019-03-17T06:21:18.429Z,1.62
2019-03-17T06:23:47.537Z,1.30
2019-03-17T06:26:16.595Z,1.50
2019-03-17T06:28:45.625Z,1.45
2019-03-17T06:31:14.663Z,1.47
2019-03-17T06:33:43.700Z,1.70
2019-03-17T06:36:12.759Z,1.60
2019-03-17T06:38:41.794Z,1.40
2019-03-17T06:41:10.826Z,1.47
2019-03-17T06:43:39.867Z,1.50
2019-03-17T06:46:08.906Z,1.50
2019-03-17T06:48:37.962Z,1.42
2019-03-17T06:51:06.991Z,1.60
2019-03-17T06:53:36.055Z,1.67
2019-03-17T06:56:05.096Z,1.42
2019-03-17T06:58:34.133Z,1.50
2019-03-17T07:01:03.167Z,1.40
2019-03-17T07:03:32.204Z,1.40
2019-03-17T07:06:01.276Z,1.70
2019-03-17T07:08:30.298Z,2.10
2019-03-17T07:10:59.336Z,1.62
2019-03-17T07:13:28.358Z,1.65
2019-03-17T07:15:57.442Z,1.45
2019-03-17T07:18:26.478Z,1.70
2019-03-17T07:20:55.526Z,1.50
2019-03-17T07:23:24.562Z,1.40
2019-03-17T07:25:53.601Z,1.60
2019-03-17T07:28:22.681Z,1.50
2019-03-17T07:30:51.740Z,1.40
2019-03-17T07:33:20.791Z,1.60
2019-03-17T07:35:49.817Z,1.40
2019-03-17T07:38:18.868Z,1.50
2019-03-17T07:40:48.117Z,1.60
2019-03-17T07:43:17.173Z,1.65
2019-03-17T07:45:46.201Z,1.52
2019-03-17T07:48:15.269Z,1.40
2019-03-17T07:50:44.301Z,1.50
2019-03-17T07:53:13.346Z,1.50
2019-03-17T07:55:42.377Z,1.50
2019-03-17T07:58:11.486Z,1.62
2019-03-17T08:00:40.535Z,1.65
2019-03-17T08:03:09.583Z,1.60
2019-03-17T08:05:38.613Z,1.55
2019-03-17T08:08:09.629Z,1.50
2019-03-17T08:10:38.456Z,1.50
2019-03-17T08:13:07.543Z,1.60
2019-03-17T08:15:36.583Z,1.47
2019-03-17T08:18:05.681Z,1.27
2019-03-17T08:20:34.749Z,1.40
2019-03-17T08:23:03.845Z,1.72
2019-03-17T08:25:32.892Z,1.80
2019-03-17T08:28:01.972Z,1.40
2019-03-17T08:30:30.985Z,1.75
2019-03-17T08:33:00.041Z,1.50
2019-03-17T08:35:29.085Z,1.62
2019-03-17T08:37:58.132Z,1.60
2019-03-17T08:40:27.174Z,1.62
2019-03-17T08:42:56.217Z,1.60
2019-03-17T08:45:25.237Z,1.98
2019-03-17T08:47:58.161Z,1.62
2019-03-17T08:50:25.034Z,1.98
2019-03-17T08:52:54.094Z,1.72
2019-03-17T08:55:23.127Z,1.72
2019-03-17T08:57:52.176Z,1.82
2019-03-17T09:00:21.756Z,1.55
2019-03-17T09:02:50.814Z,1.75
2019-03-17T09:05:19.830Z,1.80
2019-03-17T09:07:48.881Z,2.00
2019-03-17T09:10:17.918Z,1.90
2019-03-17T09:12:46.968Z,2.20
2019-03-17T09:15:16.059Z,1.80
2019-03-17T09:17:45.107Z,1.82
2019-03-17T09:20:14.707Z,1.80
2019-03-17T09:22:43.889Z,1.87
2019-03-17T09:25:13.010Z,1.90
2019-03-17T09:27:42.048Z,1.82
2019-03-17T09:30:16.057Z,1.82
2019-03-17T09:32:45.246Z,1.80
2019-03-17T09:35:14.308Z,1.80
2019-03-17T09:37:43.409Z,1.87
2019-03-17T09:40:13.686Z,2.02
2019-03-17T09:42:42.739Z,1.90
2019-03-17T09:45:13.973Z,1.85
2019-03-17T09:47:43.354Z,2.00
2019-03-17T09:50:16.719Z,1.60
2019-03-17T09:52:45.741Z,1.70
2019-03-17T09:55:14.849Z,1.75
2019-03-17T09:57:43.880Z,1.52
2019-03-17T10:00:14.559Z,1.90
2019-03-17T10:02:43.587Z,2.00
2019-03-17T10:05:12.883Z,2.12
2019-03-17T10:07:41.921Z,1.77
2019-03-17T10:10:13.313Z,1.70
2019-03-17T10:12:42.337Z,1.87
2019-03-17T10:15:13.334Z,1.70
2019-03-17T10:17:42.373Z,1.50
2019-03-17T10:20:21.717Z,1.87
2019-03-17T10:22:50.737Z,1.60
2019-03-17T10:25:19.885Z,1.87
2019-03-17T10:27:48.916Z,2.15
2019-03-17T10:30:22.004Z,2.00
2019-03-17T10:32:51.036Z,1.87
2019-03-17T10:35:20.250Z,2.17
2019-03-17T10:37:49.295Z,1.80
2019-03-17T10:40:24.074Z,1.75
2019-03-17T10:42:53.190Z,1.95
2019-03-17T10:45:22.223Z,1.75
2019-03-17T10:47:54.256Z,2.00
2019-03-17T10:50:22.565Z,1.77
2019-03-17T10:52:51.615Z,1.90
2019-03-17T10:55:20.658Z,2.40
2019-03-17T10:57:49.710Z,1.80
2019-03-17T11:00:19.682Z,1.90
2019-03-17T11:02:49.026Z,1.92
2019-03-17T11:05:18.350Z,1.90
2019-03-17T11:07:47.575Z,2.02
2019-03-17T11:10:16.659Z,2.30
2019-03-17T11:12:45.760Z,2.20
2019-03-17T11:15:21.600Z,1.92
2019-03-17T11:17:50.748Z,1.92
2019-03-17T11:20:19.798Z,2.00
2019-03-17T11:22:48.996Z,2.10
2019-03-17T11:25:19.334Z,1.90
2019-03-17T11:27:48.389Z,2.30
2019-03-17T11:30:19.358Z,1.85
2019-03-17T11:32:48.630Z,2.10
2019-03-17T11:35:17.658Z,2.25
2019-03-17T11:37:46.798Z,2.00
2019-03-17T11:40:19.817Z,1.70
2019-03-17T11:42:50.209Z,1.90
2019-03-17T11:45:19.779Z,1.92
2019-03-17T11:47:48.901Z,1.80
2019-03-17T11:50:21.031Z,1.92
2019-03-17T11:52:54.330Z,2.42
2019-03-17T11:55:23.408Z,1.90
2019-03-17T11:57:52.531Z,1.77
2019-03-17T12:00:22.793Z,1.52
2019-03-17T12:02:51.852Z,1.72
2019-03-17T12:05:20.859Z,1.80
2019-03-17T12:07:49.919Z,1.95
2019-03-17T12:10:20.403Z,1.90
2019-03-17T12:12:49.523Z,1.45
2019-03-17T12:15:20.766Z,1.85
2019-03-17T12:17:49.813Z,1.60
2019-03-17T12:20:19.080Z,1.32
2019-03-17T12:22:48.152Z,1.72
2019-03-17T12:25:20.259Z,1.50
2019-03-17T12:27:49.365Z,1.40
2019-03-17T12:30:25.566Z,1.30
2019-03-17T12:32:54.869Z,1.40
2019-03-17T12:35:23.959Z,1.12
2019-03-17T12:37:52.988Z,1.47
2019-03-17T12:40:22.204Z,1.25
2019-03-17T12:42:51.234Z,1.40
2019-03-17T12:45:20.287Z,1.10
2019-03-17T12:47:49.309Z,0.85
2019-03-17T12:50:23.510Z,0.90
2019-03-17T12:52:52.730Z,0.90
2019-03-17T12:55:21.778Z,0.70
2019-03-17T12:57:50.832Z,1.00
2019-03-17T13:00:24.023Z,0.80
2019-03-17T13:02:53.059Z,1.00
2019-03-17T13:05:22.118Z,1.10
2019-03-17T13:07:51.161Z,1.10
2019-03-17T13:10:23.129Z,1.00
2019-03-17T13:12:52.160Z,1.00
2019-03-17T13:15:21.206Z,0.80
2019-03-17T13:17:50.223Z,0.70
2019-03-17T13:20:20.221Z,0.80
2019-03-17T13:22:49.263Z,0.80
2019-03-17T13:25:18.379Z,0.60
2019-03-17T13:27:47.596Z,0.75
2019-03-17T13:30:17.905Z,0.60
2019-03-17T13:32:47.255Z,0.60
2019-03-17T13:35:16.362Z,0.57
2019-03-17T13:37:45.402Z,0.60
2019-03-17T13:40:27.711Z,0.65
2019-03-17T13:42:46.706Z,0.50
2019-03-17T13:45:15.879Z,0.75
2019-03-17T13:47:44.901Z,0.75
2019-03-17T13:50:15.287Z,1.10
2019-03-17T13:52:44.393Z,0.80
2019-03-17T13:55:13.590Z,1.22
2019-03-17T13:57:45.693Z,0.57
2019-03-17T14:00:15.515Z,0.50
2019-03-17T14:02:44.575Z,0.60
2019-03-17T14:05:14.162Z,0.62
2019-03-17T14:07:43.229Z,0.90
2019-03-17T14:10:15.048Z,0.70
2019-03-17T14:12:44.144Z,0.75
2019-03-17T14:15:14.639Z,0.80
2019-03-17T14:17:43.768Z,0.80
2019-03-17T14:20:20.206Z,1.05
2019-03-17T14:22:48.141Z,0.90
2019-03-17T14:25:25.950Z,0.90
2019-03-17T14:27:55.081Z,1.22
2019-03-17T14:30:24.285Z,1.20
2019-03-17T14:32:53.503Z,1.00
2019-03-17T14:35:22.564Z,1.00
2019-03-17T14:37:51.598Z,1.02
2019-03-17T14:40:20.776Z,1.22
2019-03-17T14:42:50.760Z,1.37
2019-03-17T14:45:20.036Z,1.60
2019-03-17T14:47:49.146Z,1.65
2019-03-17T14:50:22.970Z,1.40
2019-03-17T14:52:52.200Z,1.40
2019-03-17T14:55:21.278Z,1.40
2019-03-17T14:57:50.416Z,1.65
2019-03-17T15:00:23.284Z,1.45
2019-03-17T15:02:54.504Z,1.55
2019-03-17T15:05:25.148Z,1.50
2019-03-17T15:07:54.324Z,1.22
2019-03-17T15:10:24.609Z,1.30
2019-03-17T15:12:53.735Z,1.20
2019-03-17T15:15:23.602Z,1.10
2019-03-17T15:17:52.716Z,1.30
2019-03-17T15:20:24.414Z,1.32
2019-03-17T15:22:53.535Z,0.82
2019-03-17T15:25:22.812Z,1.30
2019-03-17T15:27:51.863Z,1.05
2019-03-17T15:30:25.589Z,1.20
2019-03-17T15:32:54.696Z,1.02
2019-03-17T15:35:23.794Z,1.30
2019-03-17T15:37:52.851Z,1.30
2019-03-17T15:40:22.333Z,1.27
2019-03-17T15:42:51.627Z,1.10
2019-03-17T15:45:22.030Z,1.30
2019-03-17T15:47:51.147Z,1.30
2019-03-17T15:50:24.617Z,1.07
2019-03-17T15:52:53.723Z,1.10
2019-03-17T15:55:22.830Z,0.90
2019-03-17T15:57:52.132Z,0.90
2019-03-17T16:00:26.297Z,1.20
2019-03-17T16:02:53.921Z,1.20
2019-03-17T16:05:23.031Z,0.90
2019-03-17T16:07:52.093Z,0.95
2019-03-17T16:10:22.367Z,1.20
2019-03-17T16:12:51.420Z,0.90
2019-03-17T16:15:20.615Z,1.00
2019-03-17T16:17:49.667Z,0.90
2019-03-17T16:20:20.233Z,1.32
2019-03-17T16:22:49.428Z,1.00
2019-03-17T16:25:38.364Z,1.10
2019-03-17T16:28:07.450Z,1.30
2019-03-17T16:30:36.554Z,1.47
2019-03-17T16:33:05.676Z,1.30
2019-03-17T16:35:34.711Z,1.20
2019-03-17T16:38:03.825Z,2.77
2019-03-17T16:40:37.222Z,1.42
2019-03-17T16:43:06.525Z,1.40
2019-03-17T16:45:35.582Z,1.40
2019-03-17T16:48:04.901Z,1.50
2019-03-17T16:50:33.958Z,1.55
2019-03-17T16:53:03.002Z,2.98
2019-03-17T16:55:32.076Z,1.57
2019-03-17T16:58:01.182Z,1.30
2019-03-17T17:00:30.236Z,1.30
2019-03-17T17:02:59.267Z,1.60
2019-03-17T17:05:28.302Z,1.27
2019-03-17T17:07:57.341Z,1.30
2019-03-17T17:10:29.982Z,1.30
2019-03-17T17:12:59.033Z,1.12
2019-03-17T17:15:33.105Z,1.10
2019-03-17T17:18:02.241Z,1.07
2019-03-17T17:20:35.875Z,1.30
2019-03-17T17:23:04.982Z,1.20
2019-03-17T17:25:34.093Z,1.20
2019-03-17T17:28:03.146Z,1.30
2019-03-17T17:30:32.204Z,1.30
2019-03-17T17:33:01.232Z,1.10
2019-03-17T17:35:30.292Z,1.30
2019-03-17T17:37:59.368Z,1.45
2019-03-17T17:40:28.711Z,1.37
2019-03-17T17:42:57.749Z,1.40
2019-03-17T17:45:28.667Z,1.85
2019-03-17T17:47:57.712Z,1.82
2019-03-17T17:50:31.147Z,2.33
2019-03-17T17:53:00.203Z,1.95
2019-03-17T17:55:29.259Z,1.60
2019-03-17T17:57:58.301Z,2.40
2019-03-17T18:00:31.894Z,2.40
2019-03-17T18:03:00.916Z,2.37
2019-03-17T18:05:30.126Z,2.30
2019-03-17T18:07:59.253Z,2.20
2019-03-17T18:10:28.296Z,2.08
2019-03-17T18:12:57.324Z,2.02
2019-03-17T18:15:30.657Z,2.20
2019-03-17T18:17:59.701Z,2.47
2019-03-17T18:20:28.735Z,2.58
2019-03-17T18:22:57.770Z,2.50
2019-03-17T18:25:26.820Z,2.70
2019-03-17T18:27:55.921Z,3.35
2019-03-17T18:30:25.806Z,2.47
2019-03-17T18:32:54.833Z,2.67
2019-03-17T18:35:23.895Z,2.60
2019-03-17T18:37:52.926Z,2.80
2019-03-17T18:40:22.530Z,2.95
2019-03-17T18:42:51.662Z,3.02
2019-03-17T18:45:25.698Z,3.35
2019-03-17T18:47:57.438Z,3.70
2019-03-17T18:50:25.503Z,3.58
2019-03-17T18:52:54.534Z,3.90
2019-03-17T18:55:23.582Z,3.55
2019-03-17T18:57:52.606Z,3.70
2019-03-17T19:00:23.872Z,4.28
2019-03-17T19:02:53.056Z,3.90
2019-03-17T19:05:22.247Z,3.98
2019-03-17T19:07:51.288Z,4.28
2019-03-17T19:10:20.986Z,3.50
2019-03-17T19:12:50.189Z,4.35
2019-03-17T19:15:21.153Z,3.40
2019-03-17T19:17:50.427Z,3.50
2019-03-17T19:20:20.503Z,3.60
2019-03-17T19:22:49.522Z,3.58
2019-03-17T19:25:20.681Z,3.12
2019-03-17T19:27:49.986Z,2.95
2019-03-17T19:30:23.043Z,2.75
2019-03-17T19:32:52.070Z,2.72
2019-03-17T19:35:21.195Z,2.60
2019-03-17T19:37:50.562Z,2.40
2019-03-17T19:40:23.760Z,2.92
2019-03-17T19:42:59.043Z,3.00
2019-03-17T19:45:23.692Z,2.52
2019-03-17T19:47:52.829Z,2.40
2019-03-17T19:50:22.918Z,2.37
2019-03-17T19:52:51.407Z,2.20
2019-03-17T19:55:20.512Z,2.42
2019-03-17T19:57:48.985Z,2.10
2019-03-17T20:00:18.665Z,2.70
2019-03-17T20:02:47.955Z,2.70
2019-03-17T20:05:17.387Z,2.50
2019-03-17T20:07:46.435Z,2.45
2019-03-17T20:10:20.842Z,2.70
2019-03-17T20:12:49.871Z,3.00
2019-03-17T20:15:18.414Z,2.80
2019-03-17T20:17:47.450Z,2.80
2019-03-17T20:20:15.926Z,3.17
2019-03-17T20:22:44.402Z,3.23
2019-03-17T20:25:13.518Z,3.10
2019-03-17T20:27:41.986Z,3.30
2019-03-17T20:30:13.544Z,3.47
2019-03-17T20:32:42.088Z,3.57
2019-03-17T20:35:12.001Z,3.35
2019-03-17T20:37:40.746Z,3.30
2019-03-17T20:40:13.756Z,3.23
2019-03-17T20:42:42.222Z,3.40
2019-03-17T20:45:12.028Z,3.40
2019-03-17T20:47:40.490Z,3.20
2019-03-17T20:50:13.405Z,3.10
2019-03-17T20:52:41.917Z,2.73
2019-03-17T20:55:11.751Z,2.55
2019-03-17T20:57:40.859Z,2.30
2019-03-17T21:00:14.202Z,2.43
2019-03-17T21:02:42.661Z,2.53
2019-03-17T21:05:12.188Z,2.53
2019-03-17T21:07:41.290Z,1.93
2019-03-17T21:10:17.450Z,2.03
2019-03-17T21:12:45.992Z,1.70
2019-03-17T21:15:21.629Z,1.90
2019-03-17T21:17:50.092Z,2.03
2019-03-17T21:20:23.271Z,1.90
2019-03-17T21:22:51.803Z,1.77
2019-03-17T21:25:20.347Z,1.73
2019-03-17T21:27:48.833Z,1.80
2019-03-17T21:30:23.329Z,1.40
2019-03-17T21:32:51.785Z,1.73
2019-03-17T21:35:20.336Z,1.40
2019-03-17T21:37:48.808Z,1.40
2019-03-17T21:40:17.358Z,1.70
2019-03-17T21:42:45.951Z,1.47
2019-03-17T21:45:14.866Z,1.37
2019-03-17T21:47:43.490Z,1.50
2019-03-17T21:50:14.769Z,1.60
2019-03-17T21:52:43.403Z,1.83
2019-03-17T21:55:13.576Z,1.90
2019-03-17T21:57:42.073Z,1.87
2019-03-17T22:00:17.391Z,2.10
2019-03-17T22:02:45.855Z,2.17
2019-03-17T22:05:14.969Z,2.10
2019-03-17T22:07:49.376Z,1.53
2019-03-17T22:10:16.185Z,1.90
2019-03-17T22:12:44.635Z,1.80
2019-03-17T22:15:15.220Z,1.90
2019-03-17T22:17:43.697Z,1.90
2019-03-17T22:20:14.525Z,2.07
2019-03-17T22:22:42.984Z,1.77
2019-03-17T22:25:12.488Z,1.90
2019-03-17T22:27:40.971Z,1.73
2019-03-17T22:30:20.331Z,2.20
2019-03-17T22:32:48.948Z,2.10
2019-03-17T22:35:18.114Z,2.00
2019-03-17T22:37:47.241Z,2.37
2019-03-17T22:40:19.427Z,2.12
2019-03-17T22:42:48.524Z,1.98
2019-03-17T22:45:17.648Z,2.40
2019-03-17T22:47:46.731Z,2.08
2019-03-17T22:50:17.280Z,2.10
2019-03-17T22:52:46.668Z,2.00
2019-03-17T22:55:15.314Z,1.90
2019-03-17T22:57:43.836Z,2.07
2019-03-17T23:00:31.191Z,1.95
2019-03-17T23:02:59.661Z,2.20
2019-03-17T23:05:28.139Z,2.20
2019-03-17T23:07:56.597Z,2.20
2019-03-17T23:10:25.221Z,2.27
2019-03-17T23:12:53.696Z,2.60
2019-03-17T23:15:22.184Z,2.20
2019-03-17T23:17:50.666Z,2.63
2019-03-17T23:20:19.184Z,2.40
2019-03-17T23:22:47.656Z,2.20
2019-03-17T23:25:16.121Z,2.40
2019-03-17T23:27:44.591Z,2.60
2019-03-17T23:30:15.385Z,2.60
2019-03-17T23:32:44.009Z,2.40
2019-03-17T23:35:12.546Z,2.73
2019-03-17T23:37:41.071Z,2.63
2019-03-17T23:40:11.484Z,2.90
2019-03-17T23:42:39.946Z,2.77
2019-03-17T23:45:10.165Z,3.10
2019-03-17T23:47:38.627Z,2.97
2019-03-17T23:50:09.334Z,3.00
2019-03-17T23:52:37.799Z,3.10
2019-03-17T23:55:08.776Z,3.00
2019-03-17T23:57:37.233Z,2.67
